createdAt,value
2022-11-30T00:01:26.496Z,8.20
2022-11-30T00:03:55.560Z,8.10
2022-11-30T00:06:24.413Z,8.20
2022-11-30T00:08:55.723Z,8.30
2022-11-30T00:11:25.109Z,8.30
2022-11-30T00:13:53.905Z,8.40
2022-11-30T00:16:22.961Z,8.50
2022-11-30T00:18:51.714Z,8.60
2022-11-30T00:21:20.415Z,8.80
2022-11-30T00:23:49.578Z,9.00
2022-11-30T00:26:22.555Z,9.10
2022-11-30T00:28:50.846Z,8.60
2022-11-30T00:31:20.300Z,8.50
2022-11-30T00:33:48.960Z,8.30
2022-11-30T00:36:19.683Z,8.00
2022-11-30T00:38:48.669Z,8.00
2022-11-30T00:41:20.533Z,8.10
2022-11-30T00:43:50.252Z,8.00
2022-11-30T00:46:18.905Z,8.00
2022-11-30T00:48:48.299Z,8.00
2022-11-30T00:51:16.730Z,8.00
2022-11-30T00:53:44.966Z,8.00
2022-11-30T00:56:13.401Z,7.90
2022-11-30T00:58:43.003Z,7.80
2022-11-30T01:01:11.232Z,7.80
2022-11-30T01:03:39.552Z,7.90
2022-11-30T01:06:10.994Z,7.90
2022-11-30T01:08:39.592Z,7.80
2022-11-30T01:11:10.246Z,7.80
2022-11-30T01:13:38.719Z,7.70
2022-11-30T01:16:13.910Z,7.70
2022-11-30T01:18:42.923Z,7.70
2022-11-30T01:21:14.437Z,7.70
2022-11-30T01:23:43.319Z,7.70
2022-11-30T01:26:12.599Z,7.60
2022-11-30T01:28:41.347Z,7.60
2022-11-30T01:31:12.835Z,7.70
2022-11-30T01:33:43.147Z,7.60
2022-11-30T01:36:13.294Z,7.60
2022-11-30T01:38:44.986Z,7.60
2022-11-30T01:41:15.808Z,7.60
2022-11-30T01:43:45.750Z,7.60
2022-11-30T01:46:32.056Z,7.60
2022-11-30T01:49:06.962Z,7.60
2022-11-30T01:51:39.271Z,7.60
2022-11-30T01:54:10.990Z,7.50
2022-11-30T01:56:42.239Z,7.50
2022-11-30T01:59:11.126Z,7.50
2022-11-30T02:01:40.983Z,7.50
2022-11-30T02:04:13.825Z,7.50
2022-11-30T02:06:42.443Z,7.40
2022-11-30T02:09:11.248Z,7.40
2022-11-30T02:11:39.483Z,7.40
2022-11-30T02:14:20.601Z,7.40
2022-11-30T02:16:58.088Z,7.40
2022-11-30T02:20:13.539Z,7.30
2022-11-30T02:22:52.461Z,7.30
2022-11-30T02:25:28.011Z,7.40
2022-11-30T02:28:13.643Z,7.30
2022-11-30T02:30:48.240Z,7.30
2022-11-30T02:33:19.524Z,7.30
2022-11-30T02:35:54.828Z,7.40
2022-11-30T02:38:26.068Z,7.40
2022-11-30T02:40:54.905Z,7.50
2022-11-30T02:43:26.112Z,7.40
2022-11-30T02:46:03.080Z,7.40
2022-11-30T02:48:35.335Z,7.30
2022-11-30T02:51:05.793Z,7.20
2022-11-30T02:53:34.098Z,7.20
2022-11-30T02:56:02.422Z,7.30
2022-11-30T02:58:30.825Z,7.40
2022-11-30T03:01:00.637Z,7.60
2022-11-30T03:03:29.966Z,7.50
2022-11-30T03:05:58.234Z,7.50
2022-11-30T03:08:26.446Z,7.40
2022-11-30T03:10:55.035Z,7.50
2022-11-30T03:13:23.225Z,7.70
2022-11-30T03:15:51.389Z,7.80
2022-11-30T03:18:21.190Z,7.70
2022-11-30T03:20:49.283Z,7.70
2022-11-30T03:23:17.534Z,7.70
2022-11-30T03:25:45.870Z,7.60
2022-11-30T03:28:13.970Z,7.60
2022-11-30T03:30:43.331Z,7.50
2022-11-30T03:33:11.719Z,7.60
2022-11-30T03:35:41.312Z,7.70
2022-11-30T03:38:09.765Z,7.80
2022-11-30T03:40:38.649Z,7.80
2022-11-30T03:43:06.813Z,7.80
2022-11-30T03:45:35.122Z,7.70
2022-11-30T03:48:03.325Z,7.60
2022-11-30T03:50:31.479Z,7.70
2022-11-30T03:53:01.367Z,7.60
2022-11-30T03:55:29.786Z,7.50
2022-11-30T03:57:57.970Z,7.50
2022-11-30T04:00:26.440Z,7.60
2022-11-30T04:02:54.747Z,7.50
2022-11-30T04:05:23.534Z,7.50
2022-11-30T04:07:51.842Z,7.50
2022-11-30T04:10:21.642Z,7.60
2022-11-30T04:12:49.870Z,7.70
2022-11-30T04:15:18.189Z,7.60
2022-11-30T04:17:46.445Z,7.50
2022-11-30T04:20:14.814Z,7.50
2022-11-30T04:22:42.938Z,7.50
2022-11-30T04:25:11.264Z,7.60
2022-11-30T04:27:40.863Z,7.40
2022-11-30T04:30:11.625Z,7.20
2022-11-30T04:32:40.370Z,7.20
2022-11-30T04:35:09.815Z,7.10
2022-11-30T04:37:38.185Z,7.00
2022-11-30T04:40:07.750Z,7.00
2022-11-30T04:42:35.971Z,7.00
2022-11-30T04:45:06.228Z,7.00
2022-11-30T04:47:35.808Z,7.00
2022-11-30T04:50:04.286Z,7.00
2022-11-30T04:52:32.447Z,6.90
2022-11-30T04:55:00.674Z,6.90
2022-11-30T04:57:28.893Z,6.90
2022-11-30T04:59:57.276Z,6.90
2022-11-30T05:02:27.019Z,6.90
2022-11-30T05:04:55.190Z,6.90
2022-11-30T05:07:23.455Z,6.90
2022-11-30T05:09:51.596Z,6.90
2022-11-30T05:12:19.730Z,6.90
2022-11-30T05:14:48.740Z,7.00
2022-11-30T05:17:17.469Z,7.10
2022-11-30T05:19:47.346Z,7.00
2022-11-30T05:22:15.541Z,7.00
2022-11-30T05:24:43.776Z,6.90
2022-11-30T05:27:15.436Z,7.00
2022-11-30T05:29:47.620Z,6.90
2022-11-30T05:32:15.835Z,6.90
2022-11-30T05:34:50.589Z,6.90
2022-11-30T05:37:21.477Z,6.90
2022-11-30T05:39:50.386Z,6.90
2022-11-30T05:42:18.615Z,6.80
2022-11-30T05:44:48.009Z,6.90
2022-11-30T05:47:18.670Z,6.90
2022-11-30T05:49:46.965Z,6.90
2022-11-30T05:52:15.114Z,6.90
2022-11-30T05:54:44.792Z,6.90
2022-11-30T05:57:13.281Z,6.90
2022-11-30T05:59:41.750Z,6.90
2022-11-30T06:02:10.268Z,6.90
2022-11-30T06:04:38.587Z,7.00
2022-11-30T06:07:11.729Z,7.10
2022-11-30T06:09:40.030Z,7.10
2022-11-30T06:12:10.070Z,7.10
2022-11-30T06:14:38.242Z,7.00
2022-11-30T06:17:06.412Z,7.00
2022-11-30T06:19:34.618Z,7.00
2022-11-30T06:22:02.752Z,7.00
2022-11-30T06:24:31.258Z,7.00
2022-11-30T06:26:59.466Z,7.10
2022-11-30T06:29:29.085Z,7.10
2022-11-30T06:31:57.326Z,7.10
2022-11-30T06:34:25.510Z,7.10
2022-11-30T06:36:53.597Z,7.10
2022-11-30T06:39:42.934Z,7.20
2022-11-30T06:42:10.130Z,7.10
2022-11-30T06:44:39.765Z,7.10
2022-11-30T06:47:08.327Z,7.10
2022-11-30T06:49:36.742Z,7.20
2022-11-30T06:52:04.987Z,7.10
2022-11-30T06:54:33.288Z,7.00
2022-11-30T06:57:01.699Z,7.20
2022-11-30T06:59:29.927Z,7.10
2022-11-30T07:02:02.922Z,7.00
2022-11-30T07:04:35.965Z,7.00
2022-11-30T07:07:04.199Z,7.30
2022-11-30T07:09:32.779Z,7.10
2022-11-30T07:12:01.217Z,7.00
2022-11-30T07:14:30.686Z,7.10
2022-11-30T07:17:04.734Z,7.00
2022-11-30T07:19:34.311Z,7.00
2022-11-30T07:22:02.625Z,7.00
2022-11-30T07:24:51.843Z,7.00
2022-11-30T07:27:26.625Z,7.10
2022-11-30T07:29:54.977Z,7.10
2022-11-30T07:32:24.561Z,7.10
2022-11-30T07:34:52.750Z,7.20
2022-11-30T07:37:20.896Z,7.10
2022-11-30T07:39:49.134Z,7.10
2022-11-30T07:42:17.757Z,7.20
2022-11-30T07:44:46.278Z,7.10
2022-11-30T07:47:14.705Z,7.20
2022-11-30T07:49:44.398Z,7.20
2022-11-30T07:52:12.599Z,7.20
2022-11-30T07:54:40.770Z,7.20
2022-11-30T07:57:09.344Z,7.30
2022-11-30T07:59:37.685Z,7.20
2022-11-30T08:02:05.874Z,7.20
2022-11-30T08:04:34.955Z,7.30
2022-11-30T08:07:04.850Z,7.20
2022-11-30T08:09:32.934Z,7.10
2022-11-30T08:12:01.166Z,7.20
2022-11-30T08:14:29.597Z,7.10
2022-11-30T08:16:57.803Z,7.10
2022-11-30T08:19:26.278Z,7.10
2022-11-30T08:21:54.473Z,7.10
2022-11-30T08:24:24.179Z,7.10
2022-11-30T08:26:53.242Z,7.00
2022-11-30T08:29:21.619Z,7.00
2022-11-30T08:31:50.014Z,7.10
2022-11-30T08:34:18.649Z,7.00
2022-11-30T08:36:51.767Z,7.00
2022-11-30T08:39:20.461Z,7.00
2022-11-30T08:41:50.101Z,7.10
2022-11-30T08:44:18.232Z,7.00
2022-11-30T08:46:53.682Z,7.00
2022-11-30T08:49:24.180Z,7.10
2022-11-30T08:54:45.460Z,7.00
2022-11-30T08:57:15.676Z,7.10
2022-11-30T08:59:44.130Z,7.10
2022-11-30T09:02:14.108Z,7.10
2022-11-30T09:04:42.508Z,7.10
2022-11-30T09:07:11.051Z,7.10
2022-11-30T09:09:40.442Z,7.10
2022-11-30T09:12:09.355Z,7.10
2022-11-30T09:14:38.966Z,7.10
2022-11-30T09:17:07.218Z,7.10
2022-11-30T09:19:35.384Z,7.20
2022-11-30T09:22:03.532Z,7.20
2022-11-30T09:24:32.014Z,7.20
2022-11-30T09:27:00.353Z,7.20
2022-11-30T09:29:28.502Z,7.20
2022-11-30T09:31:58.187Z,7.30
2022-11-30T09:34:26.419Z,7.20
2022-11-30T09:36:54.523Z,7.30
2022-11-30T09:39:22.811Z,7.40
2022-11-30T09:42:11.043Z,7.30
2022-11-30T09:44:49.233Z,7.30
2022-11-30T09:47:33.660Z,7.20
2022-11-30T09:50:05.264Z,7.30
2022-11-30T09:52:37.934Z,7.30
2022-11-30T09:55:10.650Z,7.30
2022-11-30T09:57:47.080Z,7.30
2022-11-30T10:00:19.124Z,7.30
2022-11-30T10:02:51.055Z,7.30
2022-11-30T10:05:22.247Z,7.30
2022-11-30T10:08:16.735Z,7.30
2022-11-30T10:10:52.980Z,7.30
2022-11-30T10:13:41.462Z,7.30
2022-11-30T10:16:22.410Z,7.30
2022-11-30T10:19:00.498Z,7.30
2022-11-30T10:21:50.367Z,7.30
2022-11-30T10:24:31.575Z,7.40
2022-11-30T10:27:03.975Z,7.40
2022-11-30T10:29:36.317Z,7.40
2022-11-30T10:32:14.542Z,7.40
2022-11-30T10:34:45.985Z,7.50
2022-11-30T10:37:18.559Z,7.50
2022-11-30T10:39:57.251Z,7.50
2022-11-30T10:42:31.001Z,7.50
2022-11-30T10:45:04.470Z,7.60
2022-11-30T10:47:37.207Z,7.60
2022-11-30T10:50:09.156Z,7.70
2022-11-30T10:52:45.106Z,7.80
2022-11-30T10:55:18.912Z,7.80
2022-11-30T10:57:51.063Z,7.70
2022-11-30T11:00:20.052Z,7.70
2022-11-30T11:02:49.989Z,7.80
2022-11-30T11:05:27.986Z,7.70
2022-11-30T11:08:05.954Z,7.70
2022-11-30T11:10:37.203Z,7.60
2022-11-30T11:13:06.734Z,7.60
2022-11-30T11:15:35.984Z,7.60
2022-11-30T11:18:22.997Z,7.70
2022-11-30T11:21:05.803Z,7.60
2022-11-30T11:23:38.428Z,7.60
2022-11-30T11:26:08.112Z,7.50
2022-11-30T11:28:38.489Z,7.60
2022-11-30T11:31:19.554Z,7.60
2022-11-30T11:33:53.890Z,7.60
2022-11-30T11:36:29.575Z,7.60
2022-11-30T11:38:58.524Z,7.60
2022-11-30T11:41:29.687Z,7.60
2022-11-30T11:44:03.432Z,7.60
2022-11-30T11:46:33.537Z,7.60
2022-11-30T11:49:04.986Z,7.60
2022-11-30T11:51:36.752Z,7.60
2022-11-30T11:54:17.690Z,7.70
2022-11-30T11:56:46.836Z,7.60
2022-11-30T11:59:19.060Z,7.70
2022-11-30T12:01:56.390Z,7.60
2022-11-30T12:04:46.710Z,7.60
2022-11-30T12:07:42.680Z,7.60
2022-11-30T12:10:51.165Z,7.60
2022-11-30T12:13:17.798Z,7.70
2022-11-30T12:15:58.558Z,7.70
2022-11-30T12:18:33.903Z,7.80
2022-11-30T12:21:07.295Z,7.80
2022-11-30T12:23:53.334Z,7.80
2022-11-30T12:26:30.554Z,7.70
2022-11-30T12:29:20.311Z,7.70
2022-11-30T12:32:03.682Z,7.70
2022-11-30T12:34:55.298Z,7.70
2022-11-30T12:37:32.474Z,7.70
2022-11-30T12:40:09.256Z,7.70
2022-11-30T12:42:44.798Z,7.70
2022-11-30T12:45:18.782Z,7.70
2022-11-30T12:47:57.145Z,7.70
2022-11-30T12:50:43.283Z,7.70
2022-11-30T12:53:22.178Z,7.70
2022-11-30T12:56:03.484Z,7.70
2022-11-30T12:58:40.850Z,7.80
2022-11-30T13:01:25.141Z,7.90
2022-11-30T13:04:02.367Z,7.90
2022-11-30T13:06:34.221Z,7.90
2022-11-30T13:09:07.841Z,7.90
2022-11-30T13:11:39.389Z,7.80
2022-11-30T13:14:14.877Z,7.80
2022-11-30T13:16:44.419Z,7.80
2022-11-30T13:19:27.710Z,7.70
2022-11-30T13:22:00.551Z,7.70
2022-11-30T13:24:33.758Z,7.70
2022-11-30T13:27:09.946Z,7.70
2022-11-30T13:30:07.297Z,7.70
2022-11-30T13:35:43.803Z,7.70
2022-11-30T13:38:36.464Z,7.70
2022-11-30T13:41:07.654Z,7.70
2022-11-30T13:43:42.881Z,7.70
2022-11-30T13:46:20.007Z,7.70
2022-11-30T13:48:49.113Z,7.70
2022-11-30T13:51:35.815Z,7.70
2022-11-30T13:54:37.110Z,7.70
2022-11-30T13:57:16.199Z,7.70
2022-11-30T13:59:51.622Z,7.70
2022-11-30T14:02:59.901Z,7.60
2022-11-30T14:05:39.626Z,7.60
2022-11-30T14:08:16.642Z,7.60
2022-11-30T14:10:46.772Z,7.70
2022-11-30T14:13:32.119Z,7.70
2022-11-30T14:16:02.967Z,7.70
2022-11-30T14:18:42.548Z,7.70
2022-11-30T14:21:36.879Z,7.70
2022-11-30T14:24:13.322Z,7.60
2022-11-30T14:26:45.278Z,7.60
2022-11-30T14:29:18.763Z,7.90
2022-11-30T14:31:55.755Z,8.00
2022-11-30T14:34:28.243Z,7.80
2022-11-30T14:37:01.163Z,7.70
2022-11-30T14:39:34.455Z,7.90
2022-11-30T14:42:04.603Z,7.80
2022-11-30T14:44:35.784Z,7.70
2022-11-30T14:47:17.068Z,7.60
2022-11-30T14:49:49.052Z,7.60
2022-11-30T14:52:36.368Z,7.60
2022-11-30T14:55:15.827Z,7.60
2022-11-30T14:57:52.158Z,7.60
2022-11-30T15:00:22.846Z,7.60
2022-11-30T15:02:52.415Z,7.80
2022-11-30T15:05:24.344Z,7.90
2022-11-30T15:07:52.619Z,7.80
2022-11-30T15:10:29.804Z,7.70
2022-11-30T15:12:59.590Z,7.70
2022-11-30T15:15:31.427Z,7.70
2022-11-30T15:18:14.061Z,7.70
2022-11-30T15:20:49.114Z,7.70
2022-11-30T15:23:17.821Z,7.70
2022-11-30T15:25:48.742Z,7.70
2022-11-30T15:28:22.105Z,7.70
2022-11-30T15:30:53.608Z,7.80
2022-11-30T15:33:25.369Z,7.90
2022-11-30T15:38:51.258Z,7.90
2022-11-30T15:41:21.416Z,8.00
2022-11-30T15:43:52.982Z,8.00
2022-11-30T15:46:34.150Z,8.10
2022-11-30T15:49:14.917Z,8.30
2022-11-30T15:51:45.587Z,8.50
2022-11-30T15:54:15.552Z,8.20
2022-11-30T15:56:57.110Z,8.30
2022-11-30T15:59:28.887Z,8.40
2022-11-30T16:02:08.507Z,8.50
2022-11-30T16:05:13.801Z,8.50
2022-11-30T16:07:51.366Z,8.70
2022-11-30T16:10:23.803Z,8.50
2022-11-30T16:12:54.493Z,8.50
2022-11-30T16:15:24.722Z,8.20
2022-11-30T16:17:55.026Z,8.20
2022-11-30T16:20:25.010Z,7.90
2022-11-30T16:22:53.373Z,7.70
2022-11-30T16:25:25.024Z,7.80
2022-11-30T16:27:53.851Z,7.70
2022-11-30T16:30:23.405Z,7.70
2022-11-30T16:32:52.800Z,7.70
2022-11-30T16:35:26.058Z,7.70
2022-11-30T16:37:54.187Z,7.80
2022-11-30T16:40:22.446Z,7.70
2022-11-30T16:42:51.766Z,7.70
2022-11-30T16:45:22.724Z,7.60
2022-11-30T16:47:51.544Z,8.00
2022-11-30T16:50:20.923Z,8.00
2022-11-30T16:52:50.515Z,8.30
2022-11-30T16:55:20.332Z,8.50
2022-11-30T16:57:49.167Z,8.50
2022-11-30T17:00:20.619Z,8.60
2022-11-30T17:02:54.894Z,8.70
2022-11-30T17:05:23.136Z,8.90
2022-11-30T17:07:52.998Z,8.90
2022-11-30T17:10:21.990Z,9.00
2022-11-30T17:12:50.318Z,9.00
2022-11-30T17:15:21.856Z,9.10
2022-11-30T17:17:50.112Z,9.00
2022-11-30T17:20:19.043Z,9.00
2022-11-30T17:22:48.024Z,9.10
2022-11-30T17:25:20.082Z,9.10
2022-11-30T17:27:49.537Z,8.70
2022-11-30T17:30:19.735Z,8.40
2022-11-30T17:32:48.041Z,8.30
2022-11-30T17:35:16.519Z,8.50
2022-11-30T17:37:44.805Z,8.40
2022-11-30T17:40:15.694Z,8.40
2022-11-30T17:42:45.675Z,8.40
2022-11-30T17:45:13.941Z,8.10
2022-11-30T17:47:44.837Z,8.30
2022-11-30T17:50:14.656Z,8.60
2022-11-30T17:52:43.020Z,8.70
2022-11-30T17:55:11.492Z,8.70
2022-11-30T17:57:39.938Z,8.80
2022-11-30T18:00:10.751Z,8.90
2022-11-30T18:02:38.921Z,8.90
2022-11-30T18:05:07.758Z,9.00
2022-11-30T18:07:36.425Z,9.00
2022-11-30T18:10:04.858Z,9.00
2022-11-30T18:12:33.083Z,8.80
2022-11-30T18:15:01.216Z,8.70
2022-11-30T18:17:32.276Z,8.50
2022-11-30T18:20:00.385Z,8.50
2022-11-30T18:22:29.203Z,8.50
2022-11-30T18:24:57.397Z,8.60
2022-11-30T18:27:26.483Z,8.70
2022-11-30T18:29:54.606Z,8.80
2022-11-30T18:32:22.733Z,8.90
2022-11-30T18:34:52.359Z,9.00
2022-11-30T18:37:20.551Z,9.00
2022-11-30T18:39:48.698Z,9.00
2022-11-30T18:42:18.258Z,9.10
2022-11-30T18:44:47.122Z,9.10
2022-11-30T18:47:15.473Z,9.10
2022-11-30T18:49:43.591Z,9.10
2022-11-30T18:52:13.424Z,9.10
2022-11-30T18:54:41.499Z,9.10
2022-11-30T18:57:09.659Z,9.10
2022-11-30T18:59:37.765Z,9.10
2022-11-30T19:02:06.225Z,9.10
2022-11-30T19:04:34.678Z,9.10
2022-11-30T19:07:02.827Z,9.10
2022-11-30T19:09:32.319Z,9.10
2022-11-30T19:12:00.505Z,9.10
2022-11-30T19:14:28.642Z,9.00
2022-11-30T19:16:56.783Z,9.10
2022-11-30T19:19:24.993Z,9.10
2022-11-30T19:21:53.414Z,9.00
2022-11-30T19:24:21.575Z,9.00
2022-11-30T19:26:51.052Z,9.00
2022-11-30T19:29:19.378Z,9.10
2022-11-30T19:31:47.690Z,9.00
2022-11-30T19:34:16.179Z,8.80
2022-11-30T19:36:44.347Z,8.50
2022-11-30T19:39:12.622Z,8.50
2022-11-30T19:41:40.869Z,8.70
2022-11-30T19:44:14.932Z,8.80
2022-11-30T19:46:43.823Z,8.80
2022-11-30T19:49:12.876Z,8.90
2022-11-30T19:51:42.834Z,8.90
2022-11-30T19:54:11.269Z,8.90
2022-11-30T19:56:41.810Z,9.00
2022-11-30T19:59:11.525Z,8.90
2022-11-30T20:01:39.935Z,9.00
2022-11-30T20:04:08.594Z,9.00
2022-11-30T20:06:38.587Z,9.00
2022-11-30T20:09:08.445Z,8.90
2022-11-30T20:11:36.840Z,8.90
2022-11-30T20:14:05.698Z,8.90
2022-11-30T20:16:35.321Z,8.90
2022-11-30T20:19:04.074Z,8.90
2022-11-30T20:21:34.193Z,8.90
2022-11-30T20:24:05.064Z,8.80
2022-11-30T20:26:35.627Z,8.60
2022-11-30T20:29:06.099Z,8.70
2022-11-30T20:31:37.695Z,8.60
2022-11-30T20:34:08.200Z,8.70
2022-11-30T20:36:36.878Z,8.80
2022-11-30T20:39:06.307Z,8.80
2022-11-30T20:41:35.148Z,8.80
2022-11-30T20:44:03.465Z,8.80
2022-11-30T20:46:33.640Z,8.80
2022-11-30T20:49:15.342Z,8.80
2022-11-30T20:51:43.656Z,8.80
2022-11-30T20:54:12.927Z,8.60
2022-11-30T20:56:41.953Z,8.40
2022-11-30T20:59:14.630Z,8.20
2022-11-30T21:01:43.875Z,7.90
2022-11-30T21:04:13.770Z,8.10
2022-11-30T21:06:45.540Z,8.30
2022-11-30T21:09:14.784Z,8.40
2022-11-30T21:11:43.081Z,8.40
2022-11-30T21:14:11.694Z,8.50
2022-11-30T21:16:40.074Z,8.60
2022-11-30T21:19:10.709Z,8.60
2022-11-30T21:21:40.141Z,8.60
2022-11-30T21:24:09.906Z,8.60
2022-11-30T21:26:39.522Z,8.60
2022-11-30T21:29:11.309Z,8.60
2022-11-30T21:31:39.930Z,8.60
2022-11-30T21:34:08.410Z,8.20
2022-11-30T21:36:36.610Z,8.40
2022-11-30T21:39:07.530Z,8.50
2022-11-30T21:41:37.594Z,8.30
2022-11-30T21:44:06.177Z,8.50
2022-11-30T21:46:35.100Z,8.50
2022-11-30T21:49:03.885Z,8.60
2022-11-30T21:51:32.872Z,8.20
2022-11-30T21:54:02.392Z,8.40
2022-11-30T21:56:34.068Z,8.30
2022-11-30T21:59:03.230Z,8.40
2022-11-30T22:01:33.505Z,8.40
2022-11-30T22:04:03.455Z,8.10
2022-11-30T22:06:33.213Z,7.50
2022-11-30T22:09:07.730Z,7.10
2022-11-30T22:11:40.541Z,6.90
2022-11-30T22:14:11.616Z,6.90
2022-11-30T22:16:40.019Z,6.80
2022-11-30T22:19:08.475Z,6.80
2022-11-30T22:21:37.022Z,6.70
2022-11-30T22:24:07.451Z,6.90
2022-11-30T22:26:38.907Z,6.70
2022-11-30T22:29:09.676Z,6.70
2022-11-30T22:31:39.270Z,6.80
2022-11-30T22:34:07.769Z,6.70
2022-11-30T22:36:37.831Z,6.70
2022-11-30T22:39:09.257Z,6.60
2022-11-30T22:41:40.088Z,6.60
2022-11-30T22:44:08.766Z,6.50
2022-11-30T22:46:38.352Z,6.50
2022-11-30T22:49:09.291Z,6.50
2022-11-30T22:51:38.646Z,6.40
2022-11-30T22:54:07.736Z,6.50
2022-11-30T22:56:41.156Z,6.30
2022-11-30T22:59:13.036Z,6.30
2022-11-30T23:01:44.878Z,6.30
2022-11-30T23:04:14.946Z,6.20
2022-11-30T23:06:44.133Z,6.10
2022-11-30T23:09:13.900Z,6.10
2022-11-30T23:11:43.717Z,6.00
2022-11-30T23:14:12.413Z,6.00
2022-11-30T23:16:41.474Z,5.90
2022-11-30T23:19:11.531Z,5.90
2022-11-30T23:21:42.282Z,5.90
2022-11-30T23:24:20.194Z,5.90
2022-11-30T23:26:50.026Z,5.90
2022-11-30T23:29:19.140Z,5.80
2022-11-30T23:31:48.575Z,5.80
2022-11-30T23:34:19.686Z,5.70
2022-11-30T23:36:48.296Z,5.70
2022-11-30T23:39:19.205Z,5.70
2022-11-30T23:41:48.950Z,5.80
2022-11-30T23:44:17.239Z,5.70
2022-11-30T23:46:46.211Z,5.80
2022-11-30T23:49:15.676Z,5.70
2022-11-30T23:51:43.860Z,5.70
2022-11-30T23:54:12.068Z,5.80
2022-11-30T23:56:40.207Z,5.70
2022-11-30T23:59:09.690Z,5.90
